Terminal Aerodrome Forecast
Issued by NWS

Home | Current Version | Previous Version | Text Only | Print | Product List | Glossary On
Versions: 1 2 3 4 5 6 7 8 9 10 11 12 13 14 15
000
FTAK31 PANC 281253 AAA
TAFAAQ
TAF AMD
PAAQ 281253Z 2813/2912 15005KT 5SM -SHRA BR BKN030 OVC060
      TEMPO 2813/2817 3SM BR BKN025
     FM281700 13005KT P6SM VCSH BKN035 OVC060
     FM282300 15012G20KT P6SM VCSH BKN050
     FM290700 12007KT P6SM VCSH BKN050=

USA.gov is the U.S. government's official web portal to all federal, state and local government web resources and services.